sensor_id;sensor_type;location;lat;lon;timestamp;P1;durP1;ratioP1;P2;durP2;ratioP2
44722;SDS011;30451;48.638;10.624;2023-04-03T00:01:14;3.22;;;1.90;;
44722;SDS011;30451;48.638;10.624;2023-04-03T00:03:40;2.70;;;1.73;;
44722;SDS011;30451;48.638;10.624;2023-04-03T00:06:06;4.65;;;1.90;;
44722;SDS011;30451;48.638;10.624;2023-04-03T00:08:35;3.30;;;2.00;;
44722;SDS011;30451;48.638;10.624;2023-04-03T00:11:01;3.20;;;1.70;;
44722;SDS011;30451;48.638;10.624;2023-04-03T00:13:27;3.53;;;1.83;;
44722;SDS011;30451;48.638;10.624;2023-04-03T00:15:53;2.72;;;1.63;;
44722;SDS011;30451;48.638;10.624;2023-04-03T00:18:18;2.78;;;1.70;;
44722;SDS011;30451;48.638;10.624;2023-04-03T00:20:44;2.78;;;1.83;;
44722;SDS011;30451;48.638;10.624;2023-04-03T00:23:10;3.15;;;1.95;;
44722;SDS011;30451;48.638;10.624;2023-04-03T00:25:36;3.13;;;1.70;;
44722;SDS011;30451;48.638;10.624;2023-04-03T00:28:02;3.53;;;2.00;;
44722;SDS011;30451;48.638;10.624;2023-04-03T00:30:28;3.22;;;1.65;;
44722;SDS011;30451;48.638;10.624;2023-04-03T00:32:54;2.78;;;1.70;;
44722;SDS011;30451;48.638;10.624;2023-04-03T00:35:20;2.92;;;1.60;;
44722;SDS011;30451;48.638;10.624;2023-04-03T00:37:46;2.65;;;1.80;;
44722;SDS011;30451;48.638;10.624;2023-04-03T00:40:14;3.75;;;1.60;;
44722;SDS011;30451;48.638;10.624;2023-04-03T00:42:41;2.85;;;1.60;;
44722;SDS011;30451;48.638;10.624;2023-04-03T00:47:36;2.83;;;1.73;;
44722;SDS011;30451;48.638;10.624;2023-04-03T00:50:04;2.90;;;1.70;;
44722;SDS011;30451;48.638;10.624;2023-04-03T00:52:30;2.47;;;1.60;;
44722;SDS011;30451;48.638;10.624;2023-04-03T00:54:57;4.57;;;1.85;;
44722;SDS011;30451;48.638;10.624;2023-04-03T00:57:28;2.40;;;1.42;;
44722;SDS011;30451;48.638;10.624;2023-04-03T00:59:57;3.83;;;1.70;;
44722;SDS011;30451;48.638;10.624;2023-04-03T01:02:28;2.60;;;1.70;;
44722;SDS011;30451;48.638;10.624;2023-04-03T01:04:53;2.67;;;1.50;;
44722;SDS011;30451;48.638;10.624;2023-04-03T01:07:20;2.30;;;1.42;;
44722;SDS011;30451;48.638;10.624;2023-04-03T01:12:27;2.30;;;1.48;;
44722;SDS011;30451;48.638;10.624;2023-04-03T01:15:07;2.45;;;1.42;;
44722;SDS011;30451;48.638;10.624;2023-04-03T01:17:39;2.03;;;1.30;;
44722;SDS011;30451;48.638;10.624;2023-04-03T01:28:09;2.30;;;1.30;;
44722;SDS011;30451;48.638;10.624;2023-04-03T01:33:30;2.50;;;1.30;;
44722;SDS011;30451;48.638;10.624;2023-04-03T01:35:56;2.22;;;1.23;;
44722;SDS011;30451;48.638;10.624;2023-04-03T01:38:21;2.33;;;1.35;;
44722;SDS011;30451;48.638;10.624;2023-04-03T01:40:47;2.53;;;1.60;;
44722;SDS011;30451;48.638;10.624;2023-04-03T01:43:13;2.50;;;1.40;;
44722;SDS011;30451;48.638;10.624;2023-04-03T01:45:38;2.60;;;1.40;;
44722;SDS011;30451;48.638;10.624;2023-04-03T01:48:04;2.25;;;1.27;;
44722;SDS011;30451;48.638;10.624;2023-04-03T01:50:30;2.30;;;1.40;;
44722;SDS011;30451;48.638;10.624;2023-04-03T01:52:56;2.08;;;1.27;;
44722;SDS011;30451;48.638;10.624;2023-04-03T01:55:21;2.28;;;1.35;;
44722;SDS011;30451;48.638;10.624;2023-04-03T01:57:47;1.95;;;1.10;;
44722;SDS011;30451;48.638;10.624;2023-04-03T02:00:13;2.03;;;1.15;;
44722;SDS011;30451;48.638;10.624;2023-04-03T02:02:39;1.80;;;1.13;;
44722;SDS011;30451;48.638;10.624;2023-04-03T02:05:05;2.03;;;1.20;;
44722;SDS011;30451;48.638;10.624;2023-04-03T02:07:31;1.75;;;1.20;;
44722;SDS011;30451;48.638;10.624;2023-04-03T02:09:56;1.35;;;0.90;;
44722;SDS011;30451;48.638;10.624;2023-04-03T02:12:22;1.73;;;1.13;;
44722;SDS011;30451;48.638;10.624;2023-04-03T02:14:48;1.80;;;1.20;;
44722;SDS011;30451;48.638;10.624;2023-04-03T02:17:13;1.58;;;1.10;;
44722;SDS011;30451;48.638;10.624;2023-04-03T02:19:40;1.63;;;1.10;;
44722;SDS011;30451;48.638;10.624;2023-04-03T02:22:05;2.05;;;1.10;;
44722;SDS011;30451;48.638;10.624;2023-04-03T02:24:31;1.55;;;1.10;;
44722;SDS011;30451;48.638;10.624;2023-04-03T02:26:57;1.40;;;1.00;;
44722;SDS011;30451;48.638;10.624;2023-04-03T02:29:23;1.33;;;0.90;;
44722;SDS011;30451;48.638;10.624;2023-04-03T02:31:49;1.73;;;1.17;;
44722;SDS011;30451;48.638;10.624;2023-04-03T02:34:15;1.50;;;1.00;;
44722;SDS011;30451;48.638;10.624;2023-04-03T02:36:41;1.40;;;1.00;;
44722;SDS011;30451;48.638;10.624;2023-04-03T02:39:07;1.42;;;1.05;;
44722;SDS011;30451;48.638;10.624;2023-04-03T02:41:33;1.52;;;1.00;;
44722;SDS011;30451;48.638;10.624;2023-04-03T02:44:04;1.45;;;1.00;;
44722;SDS011;30451;48.638;10.624;2023-04-03T02:46:31;1.50;;;1.00;;
44722;SDS011;30451;48.638;10.624;2023-04-03T02:48:57;2.58;;;0.90;;
44722;SDS011;30451;48.638;10.624;2023-04-03T02:51:22;1.05;;;0.88;;
44722;SDS011;30451;48.638;10.624;2023-04-03T02:53:48;1.23;;;0.90;;
44722;SDS011;30451;48.638;10.624;2023-04-03T02:56:15;1.73;;;1.00;;
44722;SDS011;30451;48.638;10.624;2023-04-03T02:58:42;1.50;;;0.93;;
44722;SDS011;30451;48.638;10.624;2023-04-03T03:01:08;1.58;;;1.00;;
44722;SDS011;30451;48.638;10.624;2023-04-03T03:03:34;1.30;;;0.90;;
44722;SDS011;30451;48.638;10.624;2023-04-03T03:06:06;1.25;;;0.85;;
44722;SDS011;30451;48.638;10.624;2023-04-03T03:08:34;1.55;;;0.93;;
44722;SDS011;30451;48.638;10.624;2023-04-03T03:11:01;1.27;;;0.90;;
44722;SDS011;30451;48.638;10.624;2023-04-03T03:13:27;1.40;;;0.93;;
44722;SDS011;30451;48.638;10.624;2023-04-03T03:15:53;1.58;;;1.00;;
44722;SDS011;30451;48.638;10.624;2023-04-03T03:18:18;1.60;;;1.00;;
44722;SDS011;30451;48.638;10.624;2023-04-03T03:20:44;1.33;;;0.90;;
44722;SDS011;30451;48.638;10.624;2023-04-03T03:23:10;1.20;;;1.00;;
44722;SDS011;30451;48.638;10.624;2023-04-03T03:25:39;1.60;;;0.98;;
44722;SDS011;30451;48.638;10.624;2023-04-03T03:28:05;1.30;;;0.90;;
44722;SDS011;30451;48.638;10.624;2023-04-03T03:30:31;1.30;;;0.90;;
44722;SDS011;30451;48.638;10.624;2023-04-03T03:32:57;0.93;;;0.77;;
44722;SDS011;30451;48.638;10.624;2023-04-03T03:35:23;1.27;;;0.90;;
44722;SDS011;30451;48.638;10.624;2023-04-03T03:37:48;1.55;;;1.05;;
44722;SDS011;30451;48.638;10.624;2023-04-03T03:40:14;1.20;;;0.80;;
44722;SDS011;30451;48.638;10.624;2023-04-03T03:42:40;1.40;;;0.90;;
44722;SDS011;30451;48.638;10.624;2023-04-03T03:45:06;1.15;;;0.80;;
44722;SDS011;30451;48.638;10.624;2023-04-03T03:47:32;1.25;;;0.90;;
44722;SDS011;30451;48.638;10.624;2023-04-03T03:49:58;1.30;;;0.90;;
44722;SDS011;30451;48.638;10.624;2023-04-03T03:52:24;1.63;;;0.90;;
44722;SDS011;30451;48.638;10.624;2023-04-03T03:54:50;0.80;;;0.73;;
44722;SDS011;30451;48.638;10.624;2023-04-03T03:57:15;1.17;;;0.80;;
44722;SDS011;30451;48.638;10.624;2023-04-03T03:59:41;1.00;;;0.80;;
44722;SDS011;30451;48.638;10.624;2023-04-03T04:02:08;0.98;;;0.70;;
44722;SDS011;30451;48.638;10.624;2023-04-03T04:04:35;1.00;;;0.70;;
44722;SDS011;30451;48.638;10.624;2023-04-03T04:07:01;1.02;;;0.70;;
44722;SDS011;30451;48.638;10.624;2023-04-03T04:09:26;1.23;;;0.80;;
44722;SDS011;30451;48.638;10.624;2023-04-03T04:11:52;1.20;;;0.80;;
44722;SDS011;30451;48.638;10.624;2023-04-03T04:14:18;0.90;;;0.70;;
44722;SDS011;30451;48.638;10.624;2023-04-03T04:16:45;0.82;;;0.70;;
44722;SDS011;30451;48.638;10.624;2023-04-03T04:19:12;1.10;;;0.80;;
44722;SDS011;30451;48.638;10.624;2023-04-03T04:21:38;1.17;;;0.98;;
44722;SDS011;30451;48.638;10.624;2023-04-03T04:24:04;0.98;;;0.70;;
44722;SDS011;30451;48.638;10.624;2023-04-03T04:26:30;1.27;;;0.77;;
44722;SDS011;30451;48.638;10.624;2023-04-03T04:28:56;1.15;;;0.90;;
44722;SDS011;30451;48.638;10.624;2023-04-03T04:31:22;0.90;;;0.70;;
44722;SDS011;30451;48.638;10.624;2023-04-03T04:33:47;1.00;;;0.80;;
44722;SDS011;30451;48.638;10.624;2023-04-03T04:36:13;0.98;;;0.80;;
44722;SDS011;30451;48.638;10.624;2023-04-03T04:38:41;1.08;;;0.80;;
44722;SDS011;30451;48.638;10.624;2023-04-03T04:41:07;1.48;;;0.70;;
44722;SDS011;30451;48.638;10.624;2023-04-03T04:43:32;1.00;;;0.80;;
44722;SDS011;30451;48.638;10.624;2023-04-03T04:46:08;1.05;;;0.70;;
44722;SDS011;30451;48.638;10.624;2023-04-03T04:48:36;0.95;;;0.80;;
44722;SDS011;30451;48.638;10.624;2023-04-03T04:51:02;0.80;;;0.70;;
44722;SDS011;30451;48.638;10.624;2023-04-03T04:53:28;0.70;;;0.63;;
44722;SDS011;30451;48.638;10.624;2023-04-03T04:55:53;1.23;;;0.80;;
44722;SDS011;30451;48.638;10.624;2023-04-03T04:58:19;0.90;;;0.80;;
44722;SDS011;30451;48.638;10.624;2023-04-03T05:00:45;0.90;;;0.73;;
44722;SDS011;30451;48.638;10.624;2023-04-03T05:03:11;1.15;;;0.80;;
44722;SDS011;30451;48.638;10.624;2023-04-03T05:05:37;0.80;;;0.70;;
44722;SDS011;30451;48.638;10.624;2023-04-03T05:08:03;0.77;;;0.73;;
44722;SDS011;30451;48.638;10.624;2023-04-03T05:10:29;1.15;;;0.70;;
44722;SDS011;30451;48.638;10.624;2023-04-03T05:12:56;0.52;;;0.52;;
44722;SDS011;30451;48.638;10.624;2023-04-03T05:15:22;0.90;;;0.70;;
44722;SDS011;30451;48.638;10.624;2023-04-03T05:17:47;1.00;;;0.80;;
44722;SDS011;30451;48.638;10.624;2023-04-03T05:20:13;1.33;;;0.70;;
44722;SDS011;30451;48.638;10.624;2023-04-03T05:22:39;1.30;;;0.80;;
44722;SDS011;30451;48.638;10.624;2023-04-03T05:25:05;0.85;;;0.70;;
44722;SDS011;30451;48.638;10.624;2023-04-03T05:27:31;0.77;;;0.60;;
44722;SDS011;30451;48.638;10.624;2023-04-03T05:29:57;1.13;;;0.70;;
44722;SDS011;30451;48.638;10.624;2023-04-03T05:32:23;1.83;;;0.75;;
44722;SDS011;30451;48.638;10.624;2023-04-03T05:34:51;0.98;;;0.70;;
44722;SDS011;30451;48.638;10.624;2023-04-03T05:37:16;1.33;;;0.80;;
44722;SDS011;30451;48.638;10.624;2023-04-03T05:39:42;1.45;;;0.80;;
44722;SDS011;30451;48.638;10.624;2023-04-03T05:42:08;0.75;;;0.70;;
44722;SDS011;30451;48.638;10.624;2023-04-03T05:44:33;1.13;;;0.73;;
44722;SDS011;30451;48.638;10.624;2023-04-03T05:47:00;1.30;;;0.80;;
44722;SDS011;30451;48.638;10.624;2023-04-03T05:49:25;1.67;;;0.77;;
44722;SDS011;30451;48.638;10.624;2023-04-03T05:51:51;1.40;;;0.90;;
44722;SDS011;30451;48.638;10.624;2023-04-03T05:54:24;0.70;;;0.63;;
44722;SDS011;30451;48.638;10.624;2023-04-03T05:56:52;1.95;;;0.75;;
44722;SDS011;30451;48.638;10.624;2023-04-03T05:59:18;1.10;;;0.80;;
44722;SDS011;30451;48.638;10.624;2023-04-03T06:01:45;1.08;;;0.70;;
44722;SDS011;30451;48.638;10.624;2023-04-03T06:04:11;1.00;;;0.60;;
44722;SDS011;30451;48.638;10.624;2023-04-03T06:06:53;1.42;;;0.80;;
44722;SDS011;30451;48.638;10.624;2023-04-03T06:09:21;1.15;;;0.70;;
44722;SDS011;30451;48.638;10.624;2023-04-03T06:11:49;1.80;;;0.90;;
44722;SDS011;30451;48.638;10.624;2023-04-03T06:14:15;1.23;;;0.80;;
44722;SDS011;30451;48.638;10.624;2023-04-03T06:16:40;2.28;;;0.80;;
44722;SDS011;30451;48.638;10.624;2023-04-03T06:19:09;1.20;;;0.80;;
44722;SDS011;30451;48.638;10.624;2023-04-03T06:21:34;1.80;;;0.88;;
44722;SDS011;30451;48.638;10.624;2023-04-03T06:24:01;1.92;;;0.90;;
44722;SDS011;30451;48.638;10.624;2023-04-03T06:26:28;2.15;;;0.93;;
44722;SDS011;30451;48.638;10.624;2023-04-03T06:28:53;1.40;;;0.80;;
44722;SDS011;30451;48.638;10.624;2023-04-03T06:31:19;2.38;;;0.90;;
44722;SDS011;30451;48.638;10.624;2023-04-03T06:33:45;1.52;;;0.85;;
44722;SDS011;30451;48.638;10.624;2023-04-03T06:36:11;2.05;;;1.13;;
44722;SDS011;30451;48.638;10.624;2023-04-03T06:38:37;2.45;;;0.90;;
44722;SDS011;30451;48.638;10.624;2023-04-03T06:41:03;1.85;;;0.93;;
44722;SDS011;30451;48.638;10.624;2023-04-03T06:43:29;1.88;;;0.90;;
44722;SDS011;30451;48.638;10.624;2023-04-03T06:45:56;2.33;;;1.10;;
44722;SDS011;30451;48.638;10.624;2023-04-03T06:48:22;2.33;;;1.10;;
44722;SDS011;30451;48.638;10.624;2023-04-03T06:50:48;3.17;;;1.15;;
44722;SDS011;30451;48.638;10.624;2023-04-03T06:53:13;1.88;;;1.00;;
44722;SDS011;30451;48.638;10.624;2023-04-03T06:55:39;1.73;;;0.90;;
44722;SDS011;30451;48.638;10.624;2023-04-03T06:58:06;2.55;;;1.00;;
44722;SDS011;30451;48.638;10.624;2023-04-03T07:00:33;2.42;;;0.95;;
44722;SDS011;30451;48.638;10.624;2023-04-03T07:02:59;2.65;;;1.10;;
44722;SDS011;30451;48.638;10.624;2023-04-03T07:05:24;2.92;;;1.20;;
44722;SDS011;30451;48.638;10.624;2023-04-03T07:07:51;1.90;;;0.98;;
44722;SDS011;30451;48.638;10.624;2023-04-03T07:10:17;2.22;;;1.00;;
44722;SDS011;30451;48.638;10.624;2023-04-03T07:12:43;3.70;;;1.15;;
44722;SDS011;30451;48.638;10.624;2023-04-03T07:15:08;2.17;;;0.82;;
44722;SDS011;30451;48.638;10.624;2023-04-03T07:17:35;1.83;;;1.00;;
44722;SDS011;30451;48.638;10.624;2023-04-03T07:20:02;1.40;;;0.90;;
44722;SDS011;30451;48.638;10.624;2023-04-03T07:22:28;2.67;;;1.10;;
44722;SDS011;30451;48.638;10.624;2023-04-03T07:24:54;2.13;;;1.00;;
44722;SDS011;30451;48.638;10.624;2023-04-03T07:27:20;2.55;;;0.98;;
44722;SDS011;30451;48.638;10.624;2023-04-03T07:29:46;2.00;;;0.90;;
44722;SDS011;30451;48.638;10.624;2023-04-03T07:32:13;1.58;;;0.93;;
44722;SDS011;30451;48.638;10.624;2023-04-03T07:34:40;1.77;;;1.00;;
44722;SDS011;30451;48.638;10.624;2023-04-03T07:37:06;2.50;;;1.10;;
44722;SDS011;30451;48.638;10.624;2023-04-03T07:39:32;3.03;;;1.00;;
44722;SDS011;30451;48.638;10.624;2023-04-03T07:41:58;3.35;;;1.67;;
44722;SDS011;30451;48.638;10.624;2023-04-03T07:44:24;1.52;;;0.85;;
44722;SDS011;30451;48.638;10.624;2023-04-03T07:46:50;2.15;;;1.00;;
44722;SDS011;30451;48.638;10.624;2023-04-03T07:49:16;1.80;;;0.90;;
44722;SDS011;30451;48.638;10.624;2023-04-03T07:51:43;2.42;;;1.17;;
44722;SDS011;30451;48.638;10.624;2023-04-03T07:54:09;2.38;;;1.00;;
44722;SDS011;30451;48.638;10.624;2023-04-03T07:56:35;2.25;;;1.02;;
44722;SDS011;30451;48.638;10.624;2023-04-03T07:59:01;1.92;;;0.95;;
44722;SDS011;30451;48.638;10.624;2023-04-03T08:01:27;2.05;;;1.00;;
44722;SDS011;30451;48.638;10.624;2023-04-03T08:03:53;2.53;;;1.02;;
44722;SDS011;30451;48.638;10.624;2023-04-03T08:06:19;1.50;;;0.80;;
44722;SDS011;30451;48.638;10.624;2023-04-03T08:08:45;2.03;;;0.93;;
44722;SDS011;30451;48.638;10.624;2023-04-03T08:11:11;1.67;;;0.90;;
44722;SDS011;30451;48.638;10.624;2023-04-03T08:13:37;1.42;;;0.88;;
44722;SDS011;30451;48.638;10.624;2023-04-03T08:16:10;1.80;;;0.90;;
44722;SDS011;30451;48.638;10.624;2023-04-03T08:18:37;1.60;;;1.00;;
44722;SDS011;30451;48.638;10.624;2023-04-03T08:21:10;1.98;;;0.90;;
44722;SDS011;30451;48.638;10.624;2023-04-03T08:23:37;2.47;;;1.00;;
44722;SDS011;30451;48.638;10.624;2023-04-03T08:26:14;2.13;;;1.02;;
44722;SDS011;30451;48.638;10.624;2023-04-03T08:28:41;1.80;;;1.00;;
44722;SDS011;30451;48.638;10.624;2023-04-03T08:31:08;1.75;;;0.90;;
44722;SDS011;30451;48.638;10.624;2023-04-03T08:33:37;1.90;;;1.00;;
44722;SDS011;30451;48.638;10.624;2023-04-03T08:36:04;2.33;;;1.00;;
44722;SDS011;30451;48.638;10.624;2023-04-03T08:38:32;1.63;;;1.10;;
44722;SDS011;30451;48.638;10.624;2023-04-03T08:41:02;1.92;;;1.00;;
44722;SDS011;30451;48.638;10.624;2023-04-03T08:49:39;1.38;;;0.75;;
44722;SDS011;30451;48.638;10.624;2023-04-03T08:52:39;1.17;;;0.80;;
44722;SDS011;30451;48.638;10.624;2023-04-03T09:00:29;1.75;;;0.90;;
44722;SDS011;30451;48.638;10.624;2023-04-03T09:03:16;1.73;;;0.85;;
44722;SDS011;30451;48.638;10.624;2023-04-03T09:05:47;1.27;;;0.70;;
44722;SDS011;30451;48.638;10.624;2023-04-03T09:08:23;1.75;;;0.90;;
44722;SDS011;30451;48.638;10.624;2023-04-03T09:10:54;1.08;;;0.80;;
44722;SDS011;30451;48.638;10.624;2023-04-03T09:13:45;1.23;;;0.80;;
44722;SDS011;30451;48.638;10.624;2023-04-03T09:16:20;1.50;;;0.80;;
44722;SDS011;30451;48.638;10.624;2023-04-03T09:24:49;2.55;;;1.20;;
44722;SDS011;30451;48.638;10.624;2023-04-03T09:27:21;1.88;;;1.05;;
44722;SDS011;30451;48.638;10.624;2023-04-03T09:29:46;2.03;;;1.00;;
44722;SDS011;30451;48.638;10.624;2023-04-03T09:32:18;2.10;;;1.10;;
44722;SDS011;30451;48.638;10.624;2023-04-03T09:34:50;2.58;;;1.10;;
44722;SDS011;30451;48.638;10.624;2023-04-03T09:37:33;1.27;;;0.90;;
44722;SDS011;30451;48.638;10.624;2023-04-03T09:40:02;1.23;;;0.90;;
44722;SDS011;30451;48.638;10.624;2023-04-03T09:42:29;2.17;;;0.93;;
44722;SDS011;30451;48.638;10.624;2023-04-03T09:47:23;2.33;;;1.00;;
44722;SDS011;30451;48.638;10.624;2023-04-03T09:52:49;3.42;;;1.05;;
44722;SDS011;30451;48.638;10.624;2023-04-03T09:55:22;2.22;;;1.02;;
44722;SDS011;30451;48.638;10.624;2023-04-03T09:57:54;2.75;;;1.10;;
44722;SDS011;30451;48.638;10.624;2023-04-03T10:00:27;2.25;;;1.05;;
44722;SDS011;30451;48.638;10.624;2023-04-03T10:03:01;1.98;;;1.00;;
44722;SDS011;30451;48.638;10.624;2023-04-03T10:05:40;2.55;;;1.15;;
44722;SDS011;30451;48.638;10.624;2023-04-03T10:10:48;1.50;;;1.00;;
44722;SDS011;30451;48.638;10.624;2023-04-03T10:13:29;2.65;;;1.13;;
44722;SDS011;30451;48.638;10.624;2023-04-03T10:21:32;1.42;;;1.00;;
44722;SDS011;30451;48.638;10.624;2023-04-03T10:34:44;2.37;;;1.30;;
44722;SDS011;30451;48.638;10.624;2023-04-03T10:37:13;3.88;;;1.38;;
44722;SDS011;30451;48.638;10.624;2023-04-03T10:50:55;3.35;;;1.25;;
44722;SDS011;30451;48.638;10.624;2023-04-03T10:57:00;2.33;;;1.10;;
44722;SDS011;30451;48.638;10.624;2023-04-03T10:59:33;3.20;;;1.10;;
44722;SDS011;30451;48.638;10.624;2023-04-03T11:02:13;2.28;;;1.10;;
44722;SDS011;30451;48.638;10.624;2023-04-03T11:07:51;2.08;;;1.05;;
44722;SDS011;30451;48.638;10.624;2023-04-03T11:12:59;2.55;;;1.30;;
44722;SDS011;30451;48.638;10.624;2023-04-03T11:15:31;2.03;;;1.10;;
44722;SDS011;30451;48.638;10.624;2023-04-03T11:18:00;5.50;;;1.80;;
44722;SDS011;30451;48.638;10.624;2023-04-03T11:20:31;2.75;;;1.30;;
44722;SDS011;30451;48.638;10.624;2023-04-03T11:23:32;2.45;;;1.10;;
44722;SDS011;30451;48.638;10.624;2023-04-03T11:25:54;2.22;;;1.10;;
44722;SDS011;30451;48.638;10.624;2023-04-03T11:28:26;2.50;;;1.10;;
44722;SDS011;30451;48.638;10.624;2023-04-03T11:36:09;2.47;;;1.20;;
44722;SDS011;30451;48.638;10.624;2023-04-03T11:38:41;2.30;;;1.25;;
44722;SDS011;30451;48.638;10.624;2023-04-03T11:41:10;2.88;;;1.23;;
44722;SDS011;30451;48.638;10.624;2023-04-03T11:43:41;1.98;;;1.10;;
44722;SDS011;30451;48.638;10.624;2023-04-03T11:46:20;2.35;;;1.10;;
44722;SDS011;30451;48.638;10.624;2023-04-03T11:48:47;2.03;;;1.10;;
44722;SDS011;30451;48.638;10.624;2023-04-03T11:53:45;2.90;;;1.45;;
44722;SDS011;30451;48.638;10.624;2023-04-03T12:02:37;2.55;;;1.17;;
44722;SDS011;30451;48.638;10.624;2023-04-03T12:08:46;2.65;;;1.20;;
44722;SDS011;30451;48.638;10.624;2023-04-03T12:16:28;2.05;;;1.05;;
44722;SDS011;30451;48.638;10.624;2023-04-03T12:40:24;1.60;;;0.80;;
44722;SDS011;30451;48.638;10.624;2023-04-03T12:45:49;2.63;;;1.00;;
44722;SDS011;30451;48.638;10.624;2023-04-03T12:48:24;2.80;;;1.20;;
44722;SDS011;30451;48.638;10.624;2023-04-03T12:50:51;2.08;;;1.10;;
44722;SDS011;30451;48.638;10.624;2023-04-03T12:53:25;2.35;;;1.10;;
44722;SDS011;30451;48.638;10.624;2023-04-03T12:55:55;3.47;;;1.23;;
44722;SDS011;30451;48.638;10.624;2023-04-03T12:58:22;1.83;;;1.00;;
44722;SDS011;30451;48.638;10.624;2023-04-03T13:01:04;3.17;;;1.25;;
44722;SDS011;30451;48.638;10.624;2023-04-03T13:03:33;1.77;;;0.98;;
44722;SDS011;30451;48.638;10.624;2023-04-03T13:06:01;2.38;;;1.17;;
44722;SDS011;30451;48.638;10.624;2023-04-03T13:08:28;2.13;;;1.17;;
44722;SDS011;30451;48.638;10.624;2023-04-03T13:11:30;2.92;;;1.27;;
44722;SDS011;30451;48.638;10.624;2023-04-03T13:13:55;2.13;;;1.00;;
44722;SDS011;30451;48.638;10.624;2023-04-03T13:16:30;3.13;;;1.10;;
44722;SDS011;30451;48.638;10.624;2023-04-03T13:18:56;2.60;;;1.10;;
44722;SDS011;30451;48.638;10.624;2023-04-03T13:21:25;1.85;;;1.10;;
44722;SDS011;30451;48.638;10.624;2023-04-03T13:23:56;2.30;;;1.10;;
44722;SDS011;30451;48.638;10.624;2023-04-03T13:26:24;1.83;;;0.90;;
44722;SDS011;30451;48.638;10.624;2023-04-03T13:28:53;2.50;;;1.10;;
44722;SDS011;30451;48.638;10.624;2023-04-03T13:31:25;1.90;;;1.10;;
44722;SDS011;30451;48.638;10.624;2023-04-03T13:41:41;2.90;;;1.10;;
44722;SDS011;30451;48.638;10.624;2023-04-03T13:46:47;3.45;;;1.10;;
44722;SDS011;30451;48.638;10.624;2023-04-03T13:49:18;1.75;;;1.10;;
44722;SDS011;30451;48.638;10.624;2023-04-03T13:51:46;3.00;;;1.20;;
44722;SDS011;30451;48.638;10.624;2023-04-03T13:54:18;3.20;;;1.00;;
44722;SDS011;30451;48.638;10.624;2023-04-03T13:56:51;1.80;;;0.90;;
44722;SDS011;30451;48.638;10.624;2023-04-03T13:59:24;2.35;;;1.10;;
44722;SDS011;30451;48.638;10.624;2023-04-03T14:04:27;2.50;;;1.20;;
44722;SDS011;30451;48.638;10.624;2023-04-03T14:06:58;2.70;;;1.10;;
44722;SDS011;30451;48.638;10.624;2023-04-03T14:09:25;3.20;;;1.00;;
44722;SDS011;30451;48.638;10.624;2023-04-03T14:11:57;3.40;;;1.10;;
44722;SDS011;30451;48.638;10.624;2023-04-03T14:14:30;2.42;;;1.17;;
44722;SDS011;30451;48.638;10.624;2023-04-03T14:16:59;2.90;;;1.13;;
44722;SDS011;30451;48.638;10.624;2023-04-03T14:19:27;2.00;;;1.00;;
44722;SDS011;30451;48.638;10.624;2023-04-03T14:24:57;2.60;;;1.02;;
44722;SDS011;30451;48.638;10.624;2023-04-03T14:27:25;2.20;;;1.10;;
44722;SDS011;30451;48.638;10.624;2023-04-03T14:30:03;2.88;;;1.20;;
44722;SDS011;30451;48.638;10.624;2023-04-03T14:32:30;2.20;;;1.00;;
44722;SDS011;30451;48.638;10.624;2023-04-03T14:34:56;4.32;;;1.08;;
44722;SDS011;30451;48.638;10.624;2023-04-03T14:37:25;3.53;;;1.00;;
44722;SDS011;30451;48.638;10.624;2023-04-03T14:39:52;2.10;;;0.93;;
44722;SDS011;30451;48.638;10.624;2023-04-03T14:42:21;1.80;;;0.90;;
44722;SDS011;30451;48.638;10.624;2023-04-03T14:44:48;2.13;;;1.00;;
44722;SDS011;30451;48.638;10.624;2023-04-03T14:47:16;2.10;;;1.00;;
44722;SDS011;30451;48.638;10.624;2023-04-03T14:49:45;2.20;;;1.17;;
44722;SDS011;30451;48.638;10.624;2023-04-03T14:52:21;2.42;;;1.00;;
44722;SDS011;30451;48.638;10.624;2023-04-03T14:54:50;2.05;;;0.90;;
44722;SDS011;30451;48.638;10.624;2023-04-03T14:57:16;2.28;;;0.95;;
44722;SDS011;30451;48.638;10.624;2023-04-03T14:59:42;2.28;;;1.00;;
44722;SDS011;30451;48.638;10.624;2023-04-03T15:02:55;3.10;;;1.10;;
44722;SDS011;30451;48.638;10.624;2023-04-03T15:04:57;3.25;;;1.05;;
44722;SDS011;30451;48.638;10.624;2023-04-03T15:07:24;2.78;;;1.20;;
44722;SDS011;30451;48.638;10.624;2023-04-03T15:09:53;2.50;;;1.20;;
44722;SDS011;30451;48.638;10.624;2023-04-03T15:12:22;3.28;;;1.10;;
44722;SDS011;30451;48.638;10.624;2023-04-03T15:14:48;2.70;;;1.20;;
44722;SDS011;30451;48.638;10.624;2023-04-03T15:17:17;2.58;;;1.13;;
44722;SDS011;30451;48.638;10.624;2023-04-03T15:19:46;3.35;;;1.30;;
44722;SDS011;30451;48.638;10.624;2023-04-03T15:22:15;2.15;;;1.00;;
44722;SDS011;30451;48.638;10.624;2023-04-03T15:24:43;2.17;;;1.10;;
44722;SDS011;30451;48.638;10.624;2023-04-03T15:27:09;2.28;;;1.08;;
44722;SDS011;30451;48.638;10.624;2023-04-03T15:29:36;2.50;;;1.02;;
44722;SDS011;30451;48.638;10.624;2023-04-03T15:32:03;2.55;;;1.27;;
44722;SDS011;30451;48.638;10.624;2023-04-03T15:34:29;2.17;;;1.00;;
44722;SDS011;30451;48.638;10.624;2023-04-03T15:36:55;2.03;;;1.00;;
44722;SDS011;30451;48.638;10.624;2023-04-03T15:39:21;2.50;;;1.13;;
44722;SDS011;30451;48.638;10.624;2023-04-03T15:41:48;2.15;;;1.05;;
44722;SDS011;30451;48.638;10.624;2023-04-03T15:44:14;1.58;;;0.90;;
44722;SDS011;30451;48.638;10.624;2023-04-03T15:46:42;3.75;;;1.30;;
44722;SDS011;30451;48.638;10.624;2023-04-03T15:49:09;2.88;;;1.33;;
44722;SDS011;30451;48.638;10.624;2023-04-03T15:51:35;3.00;;;1.02;;
44722;SDS011;30451;48.638;10.624;2023-04-03T15:54:00;1.52;;;1.00;;
44722;SDS011;30451;48.638;10.624;2023-04-03T15:56:26;2.10;;;0.93;;
44722;SDS011;30451;48.638;10.624;2023-04-03T15:58:52;2.13;;;1.00;;
44722;SDS011;30451;48.638;10.624;2023-04-03T16:01:17;2.00;;;1.05;;
44722;SDS011;30451;48.638;10.624;2023-04-03T16:03:43;3.35;;;1.10;;
44722;SDS011;30451;48.638;10.624;2023-04-03T16:06:13;2.45;;;1.20;;
44722;SDS011;30451;48.638;10.624;2023-04-03T16:08:40;3.35;;;1.00;;
44722;SDS011;30451;48.638;10.624;2023-04-03T16:11:07;1.95;;;1.00;;
44722;SDS011;30451;48.638;10.624;2023-04-03T16:13:33;2.28;;;1.05;;
44722;SDS011;30451;48.638;10.624;2023-04-03T16:15:59;1.92;;;0.80;;
44722;SDS011;30451;48.638;10.624;2023-04-03T16:18:26;1.65;;;0.82;;
44722;SDS011;30451;48.638;10.624;2023-04-03T16:20:54;1.85;;;1.00;;
44722;SDS011;30451;48.638;10.624;2023-04-03T16:23:20;1.77;;;1.02;;
44722;SDS011;30451;48.638;10.624;2023-04-03T16:25:46;2.28;;;0.93;;
44722;SDS011;30451;48.638;10.624;2023-04-03T16:28:12;2.80;;;1.00;;
44722;SDS011;30451;48.638;10.624;2023-04-03T16:30:40;1.58;;;1.02;;
44722;SDS011;30451;48.638;10.624;2023-04-03T16:33:06;2.00;;;1.05;;
44722;SDS011;30451;48.638;10.624;2023-04-03T16:35:31;1.73;;;0.90;;
44722;SDS011;30451;48.638;10.624;2023-04-03T16:37:57;2.50;;;0.90;;
44722;SDS011;30451;48.638;10.624;2023-04-03T16:40:23;1.80;;;0.93;;
44722;SDS011;30451;48.638;10.624;2023-04-03T16:42:48;2.33;;;1.00;;
44722;SDS011;30451;48.638;10.624;2023-04-03T16:45:14;2.05;;;0.98;;
44722;SDS011;30451;48.638;10.624;2023-04-03T16:47:40;2.97;;;1.10;;
44722;SDS011;30451;48.638;10.624;2023-04-03T16:50:05;2.15;;;0.93;;
44722;SDS011;30451;48.638;10.624;2023-04-03T16:52:32;1.80;;;0.95;;
44722;SDS011;30451;48.638;10.624;2023-04-03T16:54:57;1.90;;;0.90;;
44722;SDS011;30451;48.638;10.624;2023-04-03T16:57:23;2.22;;;1.08;;
44722;SDS011;30451;48.638;10.624;2023-04-03T16:59:50;2.67;;;1.00;;